createdAt,value
2018-04-11T00:02:24.424Z,99148.43
2018-04-11T00:04:52.848Z,99143.82
2018-04-11T00:07:21.323Z,99139.48
2018-04-11T00:09:49.760Z,99134.13
2018-04-11T00:12:18.181Z,99134.92
2018-04-11T00:14:46.653Z,99129.77
2018-04-11T00:17:15.068Z,99131.12
2018-04-11T00:19:43.483Z,99133.59
2018-04-11T00:22:12.105Z,99140.78
2018-04-11T00:24:40.521Z,99135.27
2018-04-11T00:27:08.931Z,99133.38
2018-04-11T00:29:37.381Z,99131.61
2018-04-11T00:32:05.798Z,99123.63
2018-04-11T00:34:34.236Z,99113.91
2018-04-11T00:37:02.688Z,99114.28
2018-04-11T00:39:31.101Z,99111.56
2018-04-11T00:41:59.513Z,99114.58
2018-04-11T00:44:27.973Z,99111.58
2018-04-11T00:46:56.397Z,99111.27
2018-04-11T00:49:24.809Z,99114.95
2018-04-11T00:51:53.269Z,99122.78
2018-04-11T00:54:21.688Z,99127.88
2018-04-11T00:56:50.117Z,99125.13
2018-04-11T00:59:18.570Z,99122.64
2018-04-11T01:01:46.984Z,99123.72
2018-04-11T01:04:15.400Z,99117.97
2018-04-11T01:06:43.852Z,99115.33
2018-04-11T01:09:12.256Z,99124.17
2018-04-11T01:11:40.675Z,99131.48
2018-04-11T01:14:09.132Z,99129.17
2018-04-11T01:16:37.549Z,99136.89
2018-04-11T01:19:05.968Z,99132.44
2018-04-11T01:21:34.421Z,99126.23
2018-04-11T01:24:02.840Z,99121.93
2018-04-11T01:26:31.258Z,99121.37
2018-04-11T01:28:59.746Z,99129.67
2018-04-11T01:31:28.157Z,99124.95
2018-04-11T01:33:56.568Z,99134.58
2018-04-11T01:36:25.032Z,99131.86
2018-04-11T01:38:53.445Z,99126.03
2018-04-11T01:41:21.856Z,99128.70
2018-04-11T01:43:50.326Z,99142.01
2018-04-11T01:46:18.736Z,99140.13
2018-04-11T01:48:47.152Z,99147.55
2018-04-11T01:51:15.607Z,99152.31
2018-04-11T01:53:44.013Z,99154.67
2018-04-11T01:56:12.416Z,99146.78
2018-04-11T01:58:40.877Z,99149.94
2018-04-11T02:01:09.288Z,99148.92
2018-04-11T02:03:37.698Z,99145.08
2018-04-11T02:06:06.158Z,99151.84
2018-04-11T02:08:34.571Z,99157.34
2018-04-11T02:11:02.992Z,99159.38
2018-04-11T02:13:31.451Z,99150.55
2018-04-11T02:15:59.883Z,99157.80
2018-04-11T02:18:28.307Z,99151.81
2018-04-11T02:20:56.761Z,99156.14
2018-04-11T02:23:25.199Z,99160.16
2018-04-11T02:25:53.613Z,99159.97
2018-04-11T02:28:22.072Z,99160.60
2018-04-11T02:30:50.481Z,99161.16
2018-04-11T02:33:18.886Z,99156.69
2018-04-11T02:35:47.341Z,99153.05
2018-04-11T02:38:15.749Z,99153.63
2018-04-11T02:40:44.160Z,99151.81
2018-04-11T02:43:12.768Z,99144.80
2018-04-11T02:45:41.172Z,99150.78
2018-04-11T02:48:09.581Z,99159.70
2018-04-11T02:50:38.045Z,99160.60
2018-04-11T02:53:06.454Z,99168.44
2018-04-11T02:55:34.865Z,99162.00
2018-04-11T02:58:03.324Z,99165.26
2018-04-11T03:00:31.734Z,99182.89
2018-04-11T03:03:00.145Z,99182.22
2018-04-11T03:05:28.607Z,99179.83
2018-04-11T03:07:57.018Z,99191.73
2018-04-11T03:10:25.429Z,99188.89
2018-04-11T03:12:53.888Z,99191.31
2018-04-11T03:15:22.299Z,99183.97
2018-04-11T03:17:50.708Z,99190.30
2018-04-11T03:20:19.177Z,99192.71
2018-04-11T03:22:47.590Z,99184.45
2018-04-11T03:25:16.031Z,99177.30
2018-04-11T03:27:44.489Z,99185.29
2018-04-11T03:30:12.901Z,99178.66
2018-04-11T03:32:41.312Z,99170.31
2018-04-11T03:35:09.785Z,99170.53
2018-04-11T03:37:38.201Z,99170.37
2018-04-11T03:40:06.620Z,99175.05
2018-04-11T03:42:35.075Z,99177.20
2018-04-11T03:45:03.494Z,99172.50
2018-04-11T03:47:31.907Z,99187.19
2018-04-11T03:50:00.365Z,99199.45
2018-04-11T03:52:28.775Z,99205.05
2018-04-11T03:54:57.189Z,99203.96
2018-04-11T03:57:25.822Z,99203.36
2018-04-11T03:59:54.232Z,99204.59
2018-04-11T04:02:22.639Z,99200.20
2018-04-11T04:04:51.088Z,99192.46
2018-04-11T04:07:19.506Z,99199.31
2018-04-11T04:09:47.911Z,99186.80
2018-04-11T04:12:16.365Z,99182.05
2018-04-11T04:14:56.600Z,99179.95
2018-04-11T04:17:36.867Z,99179.64
2018-04-11T04:20:28.892Z,99173.88
2018-04-11T04:22:57.338Z,99181.71
2018-04-11T04:25:25.760Z,99192.05
2018-04-11T04:27:54.174Z,99190.20
2018-04-11T04:30:22.644Z,99194.48
2018-04-11T04:32:51.093Z,99205.91
2018-04-11T04:35:19.495Z,99201.58
2018-04-11T04:37:47.947Z,99206.70
2018-04-11T04:40:16.374Z,99210.27
2018-04-11T04:42:44.789Z,99219.45
2018-04-11T04:45:13.262Z,99228.77
2018-04-11T04:47:41.678Z,99237.67
2018-04-11T04:50:10.090Z,99236.24
2018-04-11T04:52:38.603Z,99231.58
2018-04-11T04:55:07.019Z,99221.47
2018-04-11T04:57:35.432Z,99225.53
2018-04-11T05:00:03.928Z,99234.38
2018-04-11T05:02:32.353Z,99236.66
2018-04-11T05:05:00.881Z,99243.42
2018-04-11T05:07:29.344Z,99255.42
2018-04-11T05:09:57.750Z,99259.61
2018-04-11T05:12:26.161Z,99256.83
2018-04-11T05:14:54.626Z,99257.41
2018-04-11T05:17:23.032Z,99258.17
2018-04-11T05:19:51.475Z,99260.10
2018-04-11T05:22:19.928Z,99262.16
2018-04-11T05:24:48.363Z,99263.23
2018-04-11T05:27:16.833Z,99266.79
2018-04-11T05:29:45.264Z,99262.91
2018-04-11T05:32:13.720Z,99256.46
2018-04-11T05:34:42.133Z,99268.14
2018-04-11T05:37:10.597Z,99277.39
2018-04-11T05:39:39.008Z,99273.20
2018-04-11T05:42:07.422Z,99286.59
2018-04-11T05:44:35.876Z,99293.75
2018-04-11T05:47:04.284Z,99295.34
2018-04-11T05:49:32.692Z,99284.81
2018-04-11T05:52:01.144Z,99278.77
2018-04-11T05:54:29.563Z,99295.41
2018-04-11T05:56:57.990Z,99311.68
2018-04-11T05:59:26.460Z,99301.31
2018-04-11T06:01:54.877Z,99304.52
2018-04-11T06:04:23.289Z,99301.48
2018-04-11T06:06:51.833Z,99300.02
2018-04-11T06:09:20.245Z,99288.82
2018-04-11T06:11:48.661Z,99284.81
2018-04-11T06:14:17.136Z,99284.22
2018-04-11T06:16:45.548Z,99284.13
2018-04-11T06:19:13.987Z,99288.14
2018-04-11T06:21:42.447Z,99297.33
2018-04-11T06:24:10.859Z,99297.31
2018-04-11T06:26:39.268Z,99292.64
2018-04-11T06:29:07.738Z,99287.22
2018-04-11T06:31:36.152Z,99284.08
2018-04-11T06:34:04.573Z,99277.25
2018-04-11T06:36:33.020Z,99289.63
2018-04-11T06:39:01.473Z,99283.44
2018-04-11T06:41:30.232Z,99293.86
2018-04-11T06:43:58.851Z,99281.57
2018-04-11T06:46:27.267Z,99290.16
2018-04-11T06:48:55.730Z,99299.59
2018-04-11T06:51:24.205Z,99301.08
2018-04-11T06:53:52.655Z,99294.78
2018-04-11T06:56:21.077Z,99301.65
2018-04-11T06:58:49.543Z,99297.10
2018-04-11T07:01:17.997Z,99308.93
2018-04-11T07:03:46.415Z,99312.69
2018-04-11T07:06:14.869Z,99296.77
2018-04-11T07:08:43.284Z,99298.30
2018-04-11T07:11:11.700Z,99294.00
2018-04-11T07:13:40.144Z,99307.92
2018-04-11T07:16:08.560Z,99302.21
2018-04-11T07:18:36.970Z,99288.08
2018-04-11T07:21:05.423Z,99281.80
2018-04-11T07:23:33.837Z,99287.56
2018-04-11T07:26:02.258Z,99287.70
2018-04-11T07:28:30.741Z,99290.53
2018-04-11T07:30:59.149Z,99283.41
2018-04-11T07:33:27.568Z,99277.70
2018-04-11T07:35:56.022Z,99274.78
2018-04-11T07:38:24.436Z,99277.75
2018-04-11T07:40:52.845Z,99288.52
2018-04-11T07:43:21.299Z,99288.94
2018-04-11T07:45:49.716Z,99292.64
2018-04-11T07:48:18.157Z,99283.19
2018-04-11T07:50:46.615Z,99296.09
2018-04-11T07:53:15.033Z,99290.08
2018-04-11T07:55:43.449Z,99292.58
2018-04-11T07:58:11.902Z,99300.98
2018-04-11T08:00:40.320Z,99307.57
2018-04-11T08:03:08.750Z,99313.15
2018-04-11T08:05:37.227Z,99310.66
2018-04-11T08:08:05.653Z,99310.06
2018-04-11T08:10:34.069Z,99307.05
2018-04-11T08:13:02.517Z,99317.70
2018-04-11T08:15:30.933Z,99303.58
2018-04-11T08:17:59.344Z,99307.48
2018-04-11T08:20:27.855Z,99309.61
2018-04-11T08:22:56.273Z,99307.36
2018-04-11T08:25:24.684Z,99295.23
2018-04-11T08:27:53.154Z,99290.83
2018-04-11T08:30:21.568Z,99290.75
2018-04-11T08:32:50.006Z,99276.86
2018-04-11T08:35:18.456Z,99293.18
2018-04-11T08:37:46.873Z,99299.55
2018-04-11T08:40:15.288Z,99296.16
2018-04-11T08:42:43.752Z,99285.61
2018-04-11T08:45:12.164Z,99281.48
2018-04-11T08:47:40.576Z,99283.70
2018-04-11T08:50:09.029Z,99274.71
2018-04-11T08:52:37.539Z,99276.91
2018-04-11T08:55:05.883Z,99279.70
2018-04-11T08:57:34.357Z,99288.43
2018-04-11T09:00:02.773Z,99280.89
2018-04-11T09:02:31.202Z,99288.58
2018-04-11T09:04:59.673Z,99290.97
2018-04-11T09:07:28.090Z,99285.58
2018-04-11T09:09:56.509Z,99288.27
2018-04-11T09:12:24.986Z,99288.50
2018-04-11T09:14:53.397Z,99288.71
2018-04-11T09:17:21.804Z,99293.67
2018-04-11T09:19:50.269Z,99296.14
2018-04-11T09:22:18.684Z,99291.79
2018-04-11T09:24:47.104Z,99293.66
2018-04-11T09:27:15.559Z,99290.85
2018-04-11T09:32:11.476Z,99276.46
2018-04-11T09:34:39.936Z,99286.44
2018-04-11T09:37:08.350Z,99284.20
2018-04-11T09:39:36.760Z,99287.72
2018-04-11T09:42:05.212Z,99282.78
2018-04-11T09:44:33.629Z,99292.45
2018-04-11T09:47:02.041Z,99289.22
2018-04-11T09:49:30.537Z,99292.76
2018-04-11T09:51:58.965Z,99290.67
2018-04-11T09:54:27.388Z,99294.62
2018-04-11T09:56:55.858Z,99293.14
2018-04-11T09:59:24.289Z,99290.87
2018-04-11T10:01:52.710Z,99286.52
2018-04-11T10:04:21.179Z,99289.04
2018-04-11T10:06:50.504Z,99291.59
2018-04-11T10:09:18.937Z,99289.83
2018-04-11T10:11:47.393Z,99289.59
2018-04-11T10:14:15.806Z,99296.20
2018-04-11T10:16:44.249Z,99291.31
2018-04-11T10:19:12.704Z,99294.41
2018-04-11T10:21:41.136Z,99283.72
2018-04-11T10:24:09.568Z,99292.00
2018-04-11T10:26:38.025Z,99293.73
2018-04-11T10:29:06.446Z,99286.97
2018-04-11T10:31:34.868Z,99283.17
2018-04-11T10:34:03.349Z,99282.97
2018-04-11T10:36:31.764Z,99286.80
2018-04-11T10:39:00.182Z,99281.15
2018-04-11T10:41:28.639Z,99276.22
2018-04-11T10:43:57.053Z,99274.31
2018-04-11T10:46:25.468Z,99266.44
2018-04-11T10:48:53.921Z,99275.06
2018-04-11T10:51:22.337Z,99282.64
2018-04-11T10:53:50.780Z,99286.09
2018-04-11T10:56:19.244Z,99283.08
2018-04-11T10:58:47.661Z,99290.11
2018-04-11T11:01:16.076Z,99295.40
2018-04-11T11:03:44.529Z,99300.30
2018-04-11T11:06:12.969Z,99295.11
2018-04-11T11:08:41.384Z,99290.97
2018-04-11T11:11:09.841Z,99296.02
2018-04-11T11:13:38.285Z,99292.00
2018-04-11T11:16:06.703Z,99296.57
2018-04-11T11:18:35.180Z,99293.56
2018-04-11T11:21:03.648Z,99285.86
2018-04-11T11:23:32.081Z,99286.94
2018-04-11T11:26:00.555Z,99287.34
2018-04-11T11:28:28.972Z,99291.80
2018-04-11T11:30:57.384Z,99285.27
2018-04-11T11:33:25.877Z,99288.60
2018-04-11T11:35:54.309Z,99287.36
2018-04-11T11:38:22.720Z,99287.98
2018-04-11T11:40:51.192Z,99285.05
2018-04-11T11:43:19.644Z,99288.81
2018-04-11T11:45:48.060Z,99287.85
2018-04-11T11:48:16.517Z,99288.70
2018-04-11T11:50:44.937Z,99285.27
2018-04-11T11:53:13.360Z,99283.20
2018-04-11T11:55:41.824Z,99286.50
2018-04-11T11:58:10.231Z,99287.27
2018-04-11T12:00:38.653Z,99278.00
2018-04-11T12:03:07.101Z,99271.56
2018-04-11T12:05:35.546Z,99270.37
2018-04-11T12:08:03.989Z,99260.88
2018-04-11T12:10:32.451Z,99254.73
2018-04-11T12:13:00.865Z,99256.34
2018-04-11T12:15:29.283Z,99259.69
2018-04-11T12:17:57.754Z,99263.89
2018-04-11T12:20:26.166Z,99260.93
2018-04-11T12:22:54.586Z,99257.91
2018-04-11T12:25:23.070Z,99264.67
2018-04-11T12:27:51.492Z,99258.48
2018-04-11T12:30:19.908Z,99261.34
2018-04-11T12:32:48.373Z,99253.98
2018-04-11T12:35:16.792Z,99257.30
2018-04-11T12:37:45.208Z,99255.21
2018-04-11T12:40:13.676Z,99255.38
2018-04-11T12:42:42.092Z,99261.12
2018-04-11T12:45:10.505Z,99252.98
2018-04-11T12:47:38.960Z,99252.87
2018-04-11T12:50:07.373Z,99247.55
2018-04-11T12:52:35.784Z,99238.81
2018-04-11T12:55:04.242Z,99249.36
2018-04-11T12:57:32.684Z,99249.57
2018-04-11T13:00:01.099Z,99251.69
2018-04-11T13:02:29.552Z,99245.12
2018-04-11T13:04:57.971Z,99238.45
2018-04-11T13:07:26.388Z,99236.16
2018-04-11T13:09:54.871Z,99228.37
2018-04-11T13:12:23.304Z,99239.72
2018-04-11T13:14:51.747Z,99233.27
2018-04-11T13:17:20.201Z,99224.72
2018-04-11T13:19:48.622Z,99220.51
2018-04-11T13:22:17.043Z,99226.86
2018-04-11T13:24:45.513Z,99228.50
2018-04-11T13:27:13.924Z,99228.59
2018-04-11T13:29:42.337Z,99233.47
2018-04-11T13:32:10.795Z,99234.08
2018-04-11T13:34:39.232Z,99226.92
2018-04-11T13:37:07.668Z,99230.05
2018-04-11T13:39:36.126Z,99230.99
2018-04-11T13:42:04.541Z,99223.97
2018-04-11T13:44:32.984Z,99220.37
2018-04-11T13:47:01.712Z,99221.09
2018-04-11T13:49:30.125Z,99226.31
2018-04-11T13:51:58.548Z,99216.83
2018-04-11T13:54:27.016Z,99220.06
2018-04-11T13:56:55.429Z,99223.06
2018-04-11T13:59:23.844Z,99210.95
2018-04-11T14:01:52.325Z,99219.58
2018-04-11T14:04:20.764Z,99216.23
2018-04-11T14:06:49.186Z,99219.56
2018-04-11T14:09:17.665Z,99222.17
2018-04-11T14:11:46.076Z,99224.56
2018-04-11T14:14:14.504Z,99228.88
2018-04-11T14:16:42.985Z,99232.88
2018-04-11T14:19:11.404Z,99237.73
2018-04-11T14:21:39.848Z,99242.45
2018-04-11T14:24:08.317Z,99240.69
2018-04-11T14:26:36.740Z,99241.13
2018-04-11T14:29:05.175Z,99239.39
2018-04-11T14:31:33.687Z,99249.04
2018-04-11T14:34:02.080Z,99240.47
2018-04-11T14:36:30.498Z,99234.16
2018-04-11T14:38:58.949Z,99225.74
2018-04-11T14:41:27.366Z,99218.73
2018-04-11T14:43:55.776Z,99217.30
2018-04-11T14:46:24.244Z,99216.75
2018-04-11T14:48:52.655Z,99222.67
2018-04-11T14:51:21.065Z,99219.80
2018-04-11T14:53:49.529Z,99220.92
2018-04-11T14:56:17.949Z,99220.61
2018-04-11T14:58:46.364Z,99224.66
2018-04-11T15:01:14.828Z,99224.88
2018-04-11T15:03:43.240Z,99222.70
2018-04-11T15:06:11.656Z,99228.69
2018-04-11T15:08:40.105Z,99228.92
2018-04-11T15:11:08.519Z,99238.63
2018-04-11T15:13:36.929Z,99229.73
2018-04-11T15:16:05.380Z,99232.31
2018-04-11T15:18:33.792Z,99229.52
2018-04-11T15:21:02.207Z,99237.19
2018-04-11T15:23:30.671Z,99239.06
2018-04-11T15:25:59.090Z,99232.20
2018-04-11T15:28:27.505Z,99228.89
2018-04-11T15:30:55.961Z,99226.84
2018-04-11T15:33:24.373Z,99230.27
2018-04-11T15:35:52.783Z,99226.22
2018-04-11T15:38:21.232Z,99222.27
2018-04-11T15:40:49.649Z,99221.86
2018-04-11T15:43:18.056Z,99228.27
2018-04-11T15:45:46.528Z,99234.71
2018-04-11T15:48:14.948Z,99233.47
2018-04-11T15:50:43.415Z,99226.70
2018-04-11T15:53:11.876Z,118368.60
2018-04-11T15:55:40.311Z,118368.60
2018-04-11T15:58:08.749Z,118368.60
2018-04-11T16:00:37.224Z,99225.77
2018-04-11T16:03:05.672Z,118368.60
2018-04-11T16:05:34.107Z,118368.60
2018-04-11T16:08:02.580Z,118368.60
2018-04-11T16:10:31.028Z,118368.60
2018-04-11T16:12:59.464Z,118368.60
2018-04-11T16:15:27.959Z,118368.60
2018-04-11T16:17:56.400Z,118368.60
2018-04-11T16:20:24.832Z,118368.60
2018-04-11T16:22:53.307Z,118368.60
2018-04-11T16:25:21.752Z,118368.60
2018-04-11T16:27:50.198Z,118368.60
2018-04-11T16:30:18.672Z,118368.60
2018-04-11T16:32:47.108Z,118368.60
2018-04-11T16:35:15.579Z,118368.60
2018-04-11T16:37:44.080Z,118368.60
2018-04-11T16:40:12.549Z,118368.60
2018-04-11T16:42:40.995Z,118368.60
2018-04-11T16:45:09.481Z,118368.60
2018-04-11T16:47:37.936Z,118368.60
2018-04-11T16:50:06.374Z,118368.60
2018-04-11T16:52:34.869Z,118368.60
2018-04-11T16:55:03.307Z,118368.60
2018-04-11T16:57:31.752Z,118368.60
2018-04-11T17:00:00.237Z,118368.60
2018-04-11T17:02:28.673Z,118368.60
2018-04-11T17:04:57.109Z,118368.60
2018-04-11T17:07:25.596Z,118368.60
2018-04-11T17:09:54.051Z,118368.60
2018-04-11T17:12:22.511Z,118368.60
2018-04-11T17:14:51.004Z,118368.60
2018-04-11T17:17:19.469Z,118368.60
2018-04-11T17:19:47.932Z,118368.60
2018-04-11T17:22:28.094Z,118368.60
2018-04-11T17:25:08.236Z,118368.60
2018-04-11T17:27:48.521Z,118368.60
2018-04-11T17:30:28.700Z,118368.60
2018-04-11T17:32:57.177Z,118368.60
2018-04-11T17:35:25.633Z,118368.60
2018-04-11T17:37:54.068Z,118368.60
2018-04-11T17:40:22.560Z,118368.60
2018-04-11T17:42:50.997Z,118368.60
2018-04-11T17:45:19.454Z,118368.60
2018-04-11T17:47:47.945Z,118368.60
2018-04-11T17:50:16.411Z,118368.60
2018-04-11T17:52:44.856Z,118368.60
2018-04-11T17:55:13.332Z,118368.60
2018-04-11T17:57:41.777Z,118368.60
2018-04-11T18:00:10.221Z,118368.60
2018-04-11T18:02:38.713Z,118368.60
2018-04-11T18:05:07.159Z,118368.60
2018-04-11T18:07:35.597Z,118368.60
2018-04-11T18:10:04.110Z,118368.60
2018-04-11T18:12:32.557Z,118368.60
2018-04-11T18:15:01.003Z,118368.60
2018-04-11T18:17:29.529Z,118368.60
2018-04-11T18:19:57.973Z,118368.60
2018-04-11T18:22:26.485Z,118368.60
2018-04-11T18:24:54.972Z,118368.60
2018-04-11T18:27:23.427Z,118368.60
2018-04-11T18:29:51.874Z,118368.60
2018-04-11T18:32:20.369Z,118368.60
2018-04-11T18:34:48.824Z,118368.60
2018-04-11T18:37:17.257Z,118368.60
2018-04-11T18:39:45.754Z,118368.60
2018-04-11T18:42:14.196Z,118368.60
2018-04-11T18:44:42.645Z,118368.60
2018-04-11T18:47:11.125Z,118368.60
2018-04-11T18:49:39.568Z,118368.60
2018-04-11T18:52:08.025Z,118368.60
2018-04-11T18:54:36.512Z,118368.60
2018-04-11T18:57:04.961Z,118368.60
2018-04-11T18:59:33.408Z,118368.60
2018-04-11T19:02:01.894Z,118368.60
2018-04-11T19:04:30.340Z,118368.60
2018-04-11T19:09:00.085Z,99339.28
2018-04-11T19:11:28.500Z,99325.73
2018-04-11T19:13:56.915Z,99336.09
2018-04-11T19:16:25.414Z,99342.02
2018-04-11T19:18:53.868Z,99338.71
2018-04-11T19:21:22.305Z,99351.23
2018-04-11T19:23:50.786Z,99341.03
2018-04-11T19:26:19.228Z,99324.34
2018-04-11T19:28:47.636Z,99317.59
2018-04-11T19:31:16.111Z,99307.34
2018-04-11T19:33:44.534Z,99304.26
2018-04-11T19:36:13.041Z,99290.97
2018-04-11T19:38:41.521Z,99281.69
2018-04-11T19:41:09.956Z,99266.59
2018-04-11T19:43:38.440Z,99254.88
2018-04-11T19:46:06.921Z,99252.67
2018-04-11T19:48:35.360Z,99250.78
2018-04-11T19:51:03.808Z,99242.09
2018-04-11T19:53:32.274Z,99232.77
2018-04-11T19:56:00.685Z,99231.28
2018-04-11T19:58:29.120Z,99222.74
2018-04-11T20:00:57.651Z,99215.98
2018-04-11T20:03:26.098Z,99210.88
2018-04-11T20:05:54.508Z,99232.26
2018-04-11T20:08:22.968Z,99222.48
2018-04-11T20:10:51.381Z,99224.37
2018-04-11T20:13:19.816Z,99225.53
2018-04-11T20:15:48.312Z,99230.15
2018-04-11T20:18:16.798Z,99221.00
2018-04-11T20:20:45.226Z,99236.11
2018-04-11T20:23:13.700Z,99236.42
2018-04-11T20:25:42.117Z,99258.80
2018-04-11T20:28:10.560Z,99262.92
2018-04-11T20:30:39.038Z,99275.22
2018-04-11T20:33:07.450Z,99261.62
2018-04-11T20:35:35.864Z,99260.88
2018-04-11T20:38:04.337Z,99261.17
2018-04-11T20:40:32.763Z,99269.61
2018-04-11T20:43:01.173Z,99275.44
2018-04-11T20:45:29.641Z,99277.89
2018-04-11T20:47:58.112Z,99275.44
2018-04-11T20:50:26.528Z,99294.11
2018-04-11T20:52:54.999Z,99284.92
2018-04-11T20:55:23.422Z,99278.01
2018-04-11T20:57:51.837Z,99279.64
2018-04-11T21:00:20.287Z,99274.14
2018-04-11T21:02:48.697Z,99250.95
2018-04-11T21:05:17.136Z,99261.42
2018-04-11T21:07:45.589Z,99252.79
2018-04-11T21:10:14.000Z,99271.49
2018-04-11T21:12:42.408Z,99259.08
2018-04-11T21:15:10.921Z,99260.41
2018-04-11T21:17:39.316Z,99248.53
2018-04-11T21:20:07.732Z,99250.39
2018-04-11T21:22:36.180Z,99242.95
2018-04-11T21:25:04.613Z,99252.80
2018-04-11T21:27:33.077Z,99239.59
2018-04-11T21:30:01.549Z,99229.20
2018-04-11T21:32:30.060Z,99232.06
2018-04-11T21:34:58.480Z,99226.13
2018-04-11T21:37:26.949Z,99218.39
2018-04-11T21:39:55.356Z,99216.98
2018-04-11T21:42:23.768Z,99230.98
2018-04-11T21:44:52.216Z,99227.30
2018-04-11T21:47:20.629Z,99208.03
2018-04-11T21:49:49.049Z,99212.89
2018-04-11T21:52:17.500Z,99212.78
2018-04-11T21:54:45.929Z,99218.80
2018-04-11T21:57:14.344Z,99228.80
2018-04-11T21:59:42.792Z,99234.28
2018-04-11T22:02:11.207Z,99235.13
2018-04-11T22:04:39.625Z,99234.91
2018-04-11T22:07:08.083Z,99235.09
2018-04-11T22:09:36.497Z,99237.35
2018-04-11T22:12:04.908Z,99236.24
2018-04-11T22:14:33.379Z,99241.11
2018-04-11T22:17:01.797Z,99241.36
2018-04-11T22:19:30.213Z,99230.29
2018-04-11T22:21:58.681Z,99219.14
2018-04-11T22:24:27.102Z,99212.42
2018-04-11T22:26:55.545Z,99200.55
2018-04-11T22:29:24.007Z,99177.02
2018-04-11T22:31:52.420Z,99174.89
2018-04-11T22:34:20.832Z,99162.48
2018-04-11T22:36:49.300Z,99156.29
2018-04-11T22:39:17.721Z,99168.28
2018-04-11T22:41:46.135Z,99151.98
2018-04-11T22:44:14.592Z,99152.53
2018-04-11T22:46:43.009Z,99150.38
2018-04-11T22:49:11.428Z,99157.59
2018-04-11T22:51:39.876Z,99154.95
2018-04-11T22:54:08.340Z,99159.26
2018-04-11T22:56:36.772Z,99142.80
2018-04-11T22:59:05.224Z,99145.98
2018-04-11T23:01:33.641Z,99164.56
2018-04-11T23:04:02.060Z,99162.52
2018-04-11T23:06:30.515Z,99151.41
2018-04-11T23:08:58.931Z,99148.42
2018-04-11T23:11:27.361Z,99151.25
2018-04-11T23:13:55.836Z,99146.89
2018-04-11T23:16:24.266Z,99162.09
2018-04-11T23:18:52.680Z,99161.41
2018-04-11T23:21:21.407Z,99155.98
2018-04-11T23:23:49.837Z,99164.45
2018-04-11T23:26:18.258Z,99163.06
2018-04-11T23:28:46.725Z,99158.50
2018-04-11T23:31:15.169Z,99161.03
2018-04-11T23:33:43.589Z,99156.69
2018-04-11T23:36:12.068Z,99162.00
2018-04-11T23:38:40.476Z,99156.91
2018-04-11T23:41:08.893Z,99169.38
2018-04-11T23:43:37.349Z,99164.86
2018-04-11T23:46:05.771Z,99160.77
2018-04-11T23:48:34.185Z,99157.88
2018-04-11T23:51:02.649Z,99157.06
2018-04-11T23:53:31.065Z,99142.53
2018-04-11T23:55:59.480Z,99141.38
2018-04-11T23:58:27.941Z,99138.78
